sensor_id;sensor_type;location;lat;lon;timestamp;P1;durP1;ratioP1;P2;durP2;ratioP2
80694;SDS011;70059;42.702;23.312;2023-07-13T00:00:18;12.88;;;9.15;;
80694;SDS011;70059;42.702;23.312;2023-07-13T00:02:44;14.50;;;9.60;;
80694;SDS011;70059;42.702;23.312;2023-07-13T00:05:10;15.35;;;9.00;;
80694;SDS011;70059;42.702;23.312;2023-07-13T00:07:36;14.75;;;9.25;;
80694;SDS011;70059;42.702;23.312;2023-07-13T00:10:03;11.93;;;9.40;;
80694;SDS011;70059;42.702;23.312;2023-07-13T00:12:32;13.63;;;9.55;;
80694;SDS011;70059;42.702;23.312;2023-07-13T00:15:01;16.10;;;9.63;;
80694;SDS011;70059;42.702;23.312;2023-07-13T00:17:30;12.57;;;9.25;;
80694;SDS011;70059;42.702;23.312;2023-07-13T00:19:56;12.35;;;9.23;;
80694;SDS011;70059;42.702;23.312;2023-07-13T00:22:23;16.23;;;9.27;;
80694;SDS011;70059;42.702;23.312;2023-07-13T00:24:51;11.63;;;9.25;;
80694;SDS011;70059;42.702;23.312;2023-07-13T00:27:18;13.40;;;9.93;;
80694;SDS011;70059;42.702;23.312;2023-07-13T00:29:44;13.30;;;8.90;;
80694;SDS011;70059;42.702;23.312;2023-07-13T00:32:10;15.38;;;9.38;;
80694;SDS011;70059;42.702;23.312;2023-07-13T00:34:36;12.27;;;9.20;;
80694;SDS011;70059;42.702;23.312;2023-07-13T00:37:04;13.82;;;9.18;;
80694;SDS011;70059;42.702;23.312;2023-07-13T00:39:34;17.40;;;9.30;;
80694;SDS011;70059;42.702;23.312;2023-07-13T00:42:00;10.93;;;9.43;;
80694;SDS011;70059;42.702;23.312;2023-07-13T00:44:27;12.57;;;9.60;;
80694;SDS011;70059;42.702;23.312;2023-07-13T00:46:53;13.85;;;9.35;;
80694;SDS011;70059;42.702;23.312;2023-07-13T00:49:21;12.98;;;9.10;;
80694;SDS011;70059;42.702;23.312;2023-07-13T00:51:50;12.73;;;8.70;;
80694;SDS011;70059;42.702;23.312;2023-07-13T00:54:42;14.30;;;8.90;;
80694;SDS011;70059;42.702;23.312;2023-07-13T00:57:18;11.10;;;8.52;;
80694;SDS011;70059;42.702;23.312;2023-07-13T00:59:48;13.13;;;9.27;;
80694;SDS011;70059;42.702;23.312;2023-07-13T01:02:20;11.35;;;9.35;;
80694;SDS011;70059;42.702;23.312;2023-07-13T01:04:46;11.13;;;9.25;;
80694;SDS011;70059;42.702;23.312;2023-07-13T01:07:13;13.73;;;9.60;;
80694;SDS011;70059;42.702;23.312;2023-07-13T01:09:39;15.07;;;9.15;;
80694;SDS011;70059;42.702;23.312;2023-07-13T01:12:05;12.70;;;9.25;;
80694;SDS011;70059;42.702;23.312;2023-07-13T01:14:31;11.90;;;9.43;;
80694;SDS011;70059;42.702;23.312;2023-07-13T01:16:57;12.00;;;9.57;;
80694;SDS011;70059;42.702;23.312;2023-07-13T01:22:11;12.98;;;9.77;;
80694;SDS011;70059;42.702;23.312;2023-07-13T01:24:39;11.77;;;9.68;;
80694;SDS011;70059;42.702;23.312;2023-07-13T01:27:08;10.65;;;9.35;;
80694;SDS011;70059;42.702;23.312;2023-07-13T01:29:34;14.05;;;9.88;;
80694;SDS011;70059;42.702;23.312;2023-07-13T01:32:07;14.60;;;9.75;;
80694;SDS011;70059;42.702;23.312;2023-07-13T01:34:34;12.07;;;9.32;;
80694;SDS011;70059;42.702;23.312;2023-07-13T01:37:00;14.75;;;10.20;;
80694;SDS011;70059;42.702;23.312;2023-07-13T01:39:26;12.95;;;9.30;;
80694;SDS011;70059;42.702;23.312;2023-07-13T01:41:51;14.88;;;10.50;;
80694;SDS011;70059;42.702;23.312;2023-07-13T01:44:17;13.82;;;9.63;;
80694;SDS011;70059;42.702;23.312;2023-07-13T01:46:43;13.43;;;10.05;;
80694;SDS011;70059;42.702;23.312;2023-07-13T01:49:08;13.25;;;9.90;;
80694;SDS011;70059;42.702;23.312;2023-07-13T01:51:34;12.50;;;9.93;;
80694;SDS011;70059;42.702;23.312;2023-07-13T01:53:59;14.27;;;10.32;;
80694;SDS011;70059;42.702;23.312;2023-07-13T01:56:25;15.38;;;9.32;;
80694;SDS011;70059;42.702;23.312;2023-07-13T01:58:51;16.10;;;10.10;;
80694;SDS011;70059;42.702;23.312;2023-07-13T02:01:17;11.32;;;10.13;;
80694;SDS011;70059;42.702;23.312;2023-07-13T02:03:43;13.60;;;10.02;;
80694;SDS011;70059;42.702;23.312;2023-07-13T02:06:08;14.65;;;10.05;;
80694;SDS011;70059;42.702;23.312;2023-07-13T02:08:34;11.88;;;9.88;;
80694;SDS011;70059;42.702;23.312;2023-07-13T02:11:02;13.38;;;9.98;;
80694;SDS011;70059;42.702;23.312;2023-07-13T02:13:28;13.68;;;10.75;;
80694;SDS011;70059;42.702;23.312;2023-07-13T02:15:53;17.85;;;10.90;;
80694;SDS011;70059;42.702;23.312;2023-07-13T02:18:19;14.45;;;10.05;;
80694;SDS011;70059;42.702;23.312;2023-07-13T02:20:45;13.77;;;11.07;;
80694;SDS011;70059;42.702;23.312;2023-07-13T02:23:11;16.58;;;10.93;;
80694;SDS011;70059;42.702;23.312;2023-07-13T02:25:37;11.77;;;10.32;;
80694;SDS011;70059;42.702;23.312;2023-07-13T02:28:03;12.70;;;10.93;;
80694;SDS011;70059;42.702;23.312;2023-07-13T02:30:29;12.75;;;9.90;;
80694;SDS011;70059;42.702;23.312;2023-07-13T02:32:56;12.80;;;10.82;;
80694;SDS011;70059;42.702;23.312;2023-07-13T02:35:22;13.48;;;10.35;;
80694;SDS011;70059;42.702;23.312;2023-07-13T02:37:48;13.18;;;10.32;;
80694;SDS011;70059;42.702;23.312;2023-07-13T02:40:14;13.80;;;10.93;;
80694;SDS011;70059;42.702;23.312;2023-07-13T02:42:40;14.43;;;11.15;;
80694;SDS011;70059;42.702;23.312;2023-07-13T02:45:07;13.90;;;10.82;;
80694;SDS011;70059;42.702;23.312;2023-07-13T02:47:35;16.17;;;11.38;;
80694;SDS011;70059;42.702;23.312;2023-07-13T02:50:01;15.05;;;10.95;;
80694;SDS011;70059;42.702;23.312;2023-07-13T02:52:27;12.85;;;9.95;;
80694;SDS011;70059;42.702;23.312;2023-07-13T02:54:53;16.08;;;10.18;;
80694;SDS011;70059;42.702;23.312;2023-07-13T02:57:19;17.48;;;10.80;;
80694;SDS011;70059;42.702;23.312;2023-07-13T02:59:45;12.48;;;10.20;;
80694;SDS011;70059;42.702;23.312;2023-07-13T03:02:11;13.40;;;10.43;;
80694;SDS011;70059;42.702;23.312;2023-07-13T03:04:37;12.30;;;9.88;;
80694;SDS011;70059;42.702;23.312;2023-07-13T03:07:03;12.88;;;10.65;;
80694;SDS011;70059;42.702;23.312;2023-07-13T03:09:31;12.48;;;10.63;;
80694;SDS011;70059;42.702;23.312;2023-07-13T03:14:28;12.27;;;10.25;;
80694;SDS011;70059;42.702;23.312;2023-07-13T03:16:53;13.95;;;10.82;;
80694;SDS011;70059;42.702;23.312;2023-07-13T03:19:19;15.20;;;10.82;;
80694;SDS011;70059;42.702;23.312;2023-07-13T03:21:46;16.33;;;14.57;;
80694;SDS011;70059;42.702;23.312;2023-07-13T03:24:14;15.93;;;14.35;;
80694;SDS011;70059;42.702;23.312;2023-07-13T03:26:40;17.35;;;15.40;;
80694;SDS011;70059;42.702;23.312;2023-07-13T03:29:06;17.42;;;15.77;;
80694;SDS011;70059;42.702;23.312;2023-07-13T03:31:33;18.00;;;16.05;;
80694;SDS011;70059;42.702;23.312;2023-07-13T03:34:00;17.85;;;16.25;;
80694;SDS011;70059;42.702;23.312;2023-07-13T03:36:27;17.48;;;15.57;;
80694;SDS011;70059;42.702;23.312;2023-07-13T03:38:55;16.25;;;14.57;;
80694;SDS011;70059;42.702;23.312;2023-07-13T03:41:23;16.90;;;15.07;;
80694;SDS011;70059;42.702;23.312;2023-07-13T03:43:50;18.95;;;17.05;;
80694;SDS011;70059;42.702;23.312;2023-07-13T03:46:16;13.68;;;11.05;;
80694;SDS011;70059;42.702;23.312;2023-07-13T03:48:44;13.43;;;10.88;;
80694;SDS011;70059;42.702;23.312;2023-07-13T03:51:11;15.63;;;11.13;;
80694;SDS011;70059;42.702;23.312;2023-07-13T03:53:40;13.48;;;10.82;;
80694;SDS011;70059;42.702;23.312;2023-07-13T03:56:09;15.52;;;11.00;;
80694;SDS011;70059;42.702;23.312;2023-07-13T03:58:36;15.45;;;10.90;;
80694;SDS011;70059;42.702;23.312;2023-07-13T04:01:04;16.25;;;11.60;;
80694;SDS011;70059;42.702;23.312;2023-07-13T04:03:31;12.43;;;11.05;;
80694;SDS011;70059;42.702;23.312;2023-07-13T04:06:08;16.77;;;11.13;;
80694;SDS011;70059;42.702;23.312;2023-07-13T04:08:52;14.90;;;10.88;;
80694;SDS011;70059;42.702;23.312;2023-07-13T04:11:21;19.75;;;17.48;;
80694;SDS011;70059;42.702;23.312;2023-07-13T04:13:49;28.85;;;20.95;;
80694;SDS011;70059;42.702;23.312;2023-07-13T04:16:16;16.35;;;12.40;;
80694;SDS011;70059;42.702;23.312;2023-07-13T04:18:43;17.85;;;11.93;;
80694;SDS011;70059;42.702;23.312;2023-07-13T04:21:09;20.55;;;12.85;;
80694;SDS011;70059;42.702;23.312;2023-07-13T04:23:36;18.50;;;14.95;;
80694;SDS011;70059;42.702;23.312;2023-07-13T04:26:02;18.63;;;12.65;;
80694;SDS011;70059;42.702;23.312;2023-07-13T04:28:29;22.55;;;12.13;;
80694;SDS011;70059;42.702;23.312;2023-07-13T04:30:55;18.25;;;12.48;;
80694;SDS011;70059;42.702;23.312;2023-07-13T04:33:21;19.10;;;12.02;;
80694;SDS011;70059;42.702;23.312;2023-07-13T04:35:50;17.65;;;12.25;;
80694;SDS011;70059;42.702;23.312;2023-07-13T04:38:21;18.88;;;12.25;;
80694;SDS011;70059;42.702;23.312;2023-07-13T04:40:47;18.33;;;12.15;;
80694;SDS011;70059;42.702;23.312;2023-07-13T04:43:13;19.33;;;12.27;;
80694;SDS011;70059;42.702;23.312;2023-07-13T04:45:39;17.65;;;12.38;;
80694;SDS011;70059;42.702;23.312;2023-07-13T04:48:05;15.60;;;12.13;;
80694;SDS011;70059;42.702;23.312;2023-07-13T04:50:31;19.13;;;13.10;;
80694;SDS011;70059;42.702;23.312;2023-07-13T04:52:57;18.25;;;12.27;;
80694;SDS011;70059;42.702;23.312;2023-07-13T04:55:24;20.17;;;13.60;;
80694;SDS011;70059;42.702;23.312;2023-07-13T04:57:50;16.60;;;13.18;;
80694;SDS011;70059;42.702;23.312;2023-07-13T05:00:16;15.27;;;12.70;;
80694;SDS011;70059;42.702;23.312;2023-07-13T05:02:44;20.00;;;12.15;;
80694;SDS011;70059;42.702;23.312;2023-07-13T05:05:11;14.27;;;11.35;;
80694;SDS011;70059;42.702;23.312;2023-07-13T05:07:36;13.68;;;11.50;;
80694;SDS011;70059;42.702;23.312;2023-07-13T05:10:02;21.77;;;11.80;;
80694;SDS011;70059;42.702;23.312;2023-07-13T05:12:29;19.95;;;12.70;;
80694;SDS011;70059;42.702;23.312;2023-07-13T05:14:55;20.65;;;12.15;;
80694;SDS011;70059;42.702;23.312;2023-07-13T05:17:21;24.45;;;13.48;;
80694;SDS011;70059;42.702;23.312;2023-07-13T05:19:47;18.25;;;12.52;;
80694;SDS011;70059;42.702;23.312;2023-07-13T05:22:13;22.42;;;14.30;;
80694;SDS011;70059;42.702;23.312;2023-07-13T05:24:38;25.25;;;13.23;;
80694;SDS011;70059;42.702;23.312;2023-07-13T05:27:04;16.15;;;12.32;;
80694;SDS011;70059;42.702;23.312;2023-07-13T05:29:30;17.17;;;11.88;;
80694;SDS011;70059;42.702;23.312;2023-07-13T05:31:56;14.95;;;11.30;;
80694;SDS011;70059;42.702;23.312;2023-07-13T05:34:21;15.00;;;12.32;;
80694;SDS011;70059;42.702;23.312;2023-07-13T05:36:47;16.25;;;12.50;;
80694;SDS011;70059;42.702;23.312;2023-07-13T05:39:14;17.52;;;13.80;;
80694;SDS011;70059;42.702;23.312;2023-07-13T05:41:40;18.05;;;13.02;;
80694;SDS011;70059;42.702;23.312;2023-07-13T05:44:05;19.13;;;13.10;;
80694;SDS011;70059;42.702;23.312;2023-07-13T05:46:31;19.65;;;13.85;;
80694;SDS011;70059;42.702;23.312;2023-07-13T05:48:57;20.55;;;14.10;;
80694;SDS011;70059;42.702;23.312;2023-07-13T05:51:23;19.58;;;12.40;;
80694;SDS011;70059;42.702;23.312;2023-07-13T05:53:48;20.08;;;13.95;;
80694;SDS011;70059;42.702;23.312;2023-07-13T05:56:14;17.60;;;13.50;;
80694;SDS011;70059;42.702;23.312;2023-07-13T05:58:40;17.65;;;12.48;;
80694;SDS011;70059;42.702;23.312;2023-07-13T06:01:08;20.15;;;12.93;;
80694;SDS011;70059;42.702;23.312;2023-07-13T06:03:36;23.20;;;13.85;;
80694;SDS011;70059;42.702;23.312;2023-07-13T06:06:05;22.83;;;13.07;;
80694;SDS011;70059;42.702;23.312;2023-07-13T06:08:31;15.32;;;12.85;;
80694;SDS011;70059;42.702;23.312;2023-07-13T06:11:05;18.50;;;13.32;;
80694;SDS011;70059;42.702;23.312;2023-07-13T06:13:41;14.93;;;11.55;;
80694;SDS011;70059;42.702;23.312;2023-07-13T06:16:07;19.05;;;11.98;;
80694;SDS011;70059;42.702;23.312;2023-07-13T06:18:34;33.22;;;15.27;;
80694;SDS011;70059;42.702;23.312;2023-07-13T06:21:01;18.42;;;13.48;;
80694;SDS011;70059;42.702;23.312;2023-07-13T06:23:37;22.65;;;13.85;;
80694;SDS011;70059;42.702;23.312;2023-07-13T06:26:04;18.42;;;13.65;;
80694;SDS011;70059;42.702;23.312;2023-07-13T06:28:30;19.52;;;13.27;;
80694;SDS011;70059;42.702;23.312;2023-07-13T06:30:56;22.88;;;13.18;;
80694;SDS011;70059;42.702;23.312;2023-07-13T06:33:23;21.08;;;13.45;;
80694;SDS011;70059;42.702;23.312;2023-07-13T06:35:49;16.58;;;12.52;;
80694;SDS011;70059;42.702;23.312;2023-07-13T06:38:15;18.98;;;12.73;;
80694;SDS011;70059;42.702;23.312;2023-07-13T06:40:40;20.40;;;13.52;;
80694;SDS011;70059;42.702;23.312;2023-07-13T06:43:06;19.90;;;14.32;;
80694;SDS011;70059;42.702;23.312;2023-07-13T06:45:36;20.00;;;13.80;;
80694;SDS011;70059;42.702;23.312;2023-07-13T06:48:07;16.67;;;12.80;;
80694;SDS011;70059;42.702;23.312;2023-07-13T06:50:33;20.45;;;13.23;;
80694;SDS011;70059;42.702;23.312;2023-07-13T06:52:59;17.60;;;13.30;;
80694;SDS011;70059;42.702;23.312;2023-07-13T06:55:25;20.30;;;12.88;;
80694;SDS011;70059;42.702;23.312;2023-07-13T06:57:51;19.55;;;13.70;;
80694;SDS011;70059;42.702;23.312;2023-07-13T07:00:17;19.58;;;12.77;;
80694;SDS011;70059;42.702;23.312;2023-07-13T07:02:43;25.83;;;14.32;;
80694;SDS011;70059;42.702;23.312;2023-07-13T07:05:08;18.00;;;13.35;;
80694;SDS011;70059;42.702;23.312;2023-07-13T07:07:34;18.33;;;13.98;;
80694;SDS011;70059;42.702;23.312;2023-07-13T07:10:00;18.83;;;13.40;;
80694;SDS011;70059;42.702;23.312;2023-07-13T07:12:28;19.58;;;12.77;;
80694;SDS011;70059;42.702;23.312;2023-07-13T07:14:54;17.10;;;13.57;;
80694;SDS011;70059;42.702;23.312;2023-07-13T07:17:19;18.33;;;13.27;;
80694;SDS011;70059;42.702;23.312;2023-07-13T07:19:45;22.20;;;13.20;;
80694;SDS011;70059;42.702;23.312;2023-07-13T07:22:11;19.42;;;12.93;;
80694;SDS011;70059;42.702;23.312;2023-07-13T07:24:37;17.75;;;12.60;;
80694;SDS011;70059;42.702;23.312;2023-07-13T07:27:02;19.45;;;13.32;;
80694;SDS011;70059;42.702;23.312;2023-07-13T07:29:28;23.13;;;15.13;;
80694;SDS011;70059;42.702;23.312;2023-07-13T07:31:54;17.98;;;13.43;;
80694;SDS011;70059;42.702;23.312;2023-07-13T07:34:20;18.58;;;13.15;;
80694;SDS011;70059;42.702;23.312;2023-07-13T07:36:45;19.88;;;12.63;;
80694;SDS011;70059;42.702;23.312;2023-07-13T07:39:11;17.65;;;13.07;;
80694;SDS011;70059;42.702;23.312;2023-07-13T07:41:37;21.27;;;13.57;;
80694;SDS011;70059;42.702;23.312;2023-07-13T07:44:03;18.85;;;13.88;;
80694;SDS011;70059;42.702;23.312;2023-07-13T07:46:29;21.98;;;13.93;;
80694;SDS011;70059;42.702;23.312;2023-07-13T07:48:55;20.02;;;13.57;;
80694;SDS011;70059;42.702;23.312;2023-07-13T07:51:21;19.05;;;13.23;;
80694;SDS011;70059;42.702;23.312;2023-07-13T07:53:47;20.33;;;13.35;;
80694;SDS011;70059;42.702;23.312;2023-07-13T07:56:13;15.57;;;12.32;;
80694;SDS011;70059;42.702;23.312;2023-07-13T07:58:41;18.25;;;12.55;;
80694;SDS011;70059;42.702;23.312;2023-07-13T08:01:07;17.35;;;12.27;;
80694;SDS011;70059;42.702;23.312;2023-07-13T08:03:33;18.45;;;16.50;;
80694;SDS011;70059;42.702;23.312;2023-07-13T08:05:59;18.17;;;12.00;;
80694;SDS011;70059;42.702;23.312;2023-07-13T08:08:25;17.27;;;12.20;;
80694;SDS011;70059;42.702;23.312;2023-07-13T08:10:51;18.25;;;12.32;;
80694;SDS011;70059;42.702;23.312;2023-07-13T08:13:17;19.23;;;17.55;;
80694;SDS011;70059;42.702;23.312;2023-07-13T08:15:42;20.20;;;18.17;;
80694;SDS011;70059;42.702;23.312;2023-07-13T08:18:08;18.60;;;16.92;;
80694;SDS011;70059;42.702;23.312;2023-07-13T08:20:37;20.30;;;18.35;;
80694;SDS011;70059;42.702;23.312;2023-07-13T08:23:03;20.02;;;17.98;;
80694;SDS011;70059;42.702;23.312;2023-07-13T08:25:29;20.25;;;18.48;;
80694;SDS011;70059;42.702;23.312;2023-07-13T08:27:55;19.27;;;17.77;;
80694;SDS011;70059;42.702;23.312;2023-07-13T08:30:21;18.85;;;17.05;;
80694;SDS011;70059;42.702;23.312;2023-07-13T08:32:46;19.63;;;17.83;;
80694;SDS011;70059;42.702;23.312;2023-07-13T08:35:12;20.98;;;18.02;;
80694;SDS011;70059;42.702;23.312;2023-07-13T08:37:38;21.67;;;19.48;;
80694;SDS011;70059;42.702;23.312;2023-07-13T08:40:04;20.95;;;17.92;;
80694;SDS011;70059;42.702;23.312;2023-07-13T08:48:18;20.23;;;18.10;;
80694;SDS011;70059;42.702;23.312;2023-07-13T08:53:23;22.05;;;19.05;;
80694;SDS011;70059;42.702;23.312;2023-07-13T08:55:56;19.70;;;17.63;;
80694;SDS011;70059;42.702;23.312;2023-07-13T08:58:24;20.55;;;18.67;;
80694;SDS011;70059;42.702;23.312;2023-07-13T09:03:40;20.95;;;18.88;;
80694;SDS011;70059;42.702;23.312;2023-07-13T09:06:30;21.05;;;19.13;;
80694;SDS011;70059;42.702;23.312;2023-07-13T09:09:20;21.30;;;19.05;;
80694;SDS011;70059;42.702;23.312;2023-07-13T09:14:47;22.67;;;20.38;;
80694;SDS011;70059;42.702;23.312;2023-07-13T09:17:21;22.55;;;20.38;;
80694;SDS011;70059;42.702;23.312;2023-07-13T09:20:03;21.92;;;19.80;;
80694;SDS011;70059;42.702;23.312;2023-07-13T09:22:38;19.63;;;17.92;;
80694;SDS011;70059;42.702;23.312;2023-07-13T09:25:11;22.95;;;20.98;;
80694;SDS011;70059;42.702;23.312;2023-07-13T09:28:10;21.85;;;19.50;;
80694;SDS011;70059;42.702;23.312;2023-07-13T09:31:03;21.65;;;19.48;;
80694;SDS011;70059;42.702;23.312;2023-07-13T09:33:48;22.85;;;20.52;;
80694;SDS011;70059;42.702;23.312;2023-07-13T09:38:53;19.83;;;17.70;;
80694;SDS011;70059;42.702;23.312;2023-07-13T09:44:17;20.98;;;18.88;;
80694;SDS011;70059;42.702;23.312;2023-07-13T09:46:53;20.38;;;18.23;;
80694;SDS011;70059;42.702;23.312;2023-07-13T09:49:27;20.80;;;18.90;;
80694;SDS011;70059;42.702;23.312;2023-07-13T09:51:58;21.65;;;19.38;;
80694;SDS011;70059;42.702;23.312;2023-07-13T09:54:25;21.00;;;17.85;;
80694;SDS011;70059;42.702;23.312;2023-07-13T09:56:58;22.92;;;19.02;;
80694;SDS011;70059;42.702;23.312;2023-07-13T09:59:27;20.75;;;18.65;;
80694;SDS011;70059;42.702;23.312;2023-07-13T10:01:55;19.98;;;18.27;;
80694;SDS011;70059;42.702;23.312;2023-07-13T10:04:26;20.20;;;18.50;;
80694;SDS011;70059;42.702;23.312;2023-07-13T10:07:09;19.88;;;18.00;;
80694;SDS011;70059;42.702;23.312;2023-07-13T10:09:38;19.02;;;17.05;;
80694;SDS011;70059;42.702;23.312;2023-07-13T10:12:04;16.08;;;14.57;;
80694;SDS011;70059;42.702;23.312;2023-07-13T10:14:42;15.90;;;14.50;;
80694;SDS011;70059;42.702;23.312;2023-07-13T10:17:09;15.73;;;14.40;;
80694;SDS011;70059;42.702;23.312;2023-07-13T10:19:39;15.02;;;13.82;;
80694;SDS011;70059;42.702;23.312;2023-07-13T10:22:16;14.93;;;13.55;;
80694;SDS011;70059;42.702;23.312;2023-07-13T10:24:49;15.85;;;14.00;;
80694;SDS011;70059;42.702;23.312;2023-07-13T10:27:17;18.63;;;14.40;;
80694;SDS011;70059;42.702;23.312;2023-07-13T10:32:45;15.25;;;13.85;;
80694;SDS011;70059;42.702;23.312;2023-07-13T10:35:13;15.48;;;14.25;;
80694;SDS011;70059;42.702;23.312;2023-07-13T10:37:51;15.45;;;14.05;;
80694;SDS011;70059;42.702;23.312;2023-07-13T10:40:25;16.05;;;14.52;;
80694;SDS011;70059;42.702;23.312;2023-07-13T10:42:57;16.30;;;14.77;;
80694;SDS011;70059;42.702;23.312;2023-07-13T10:45:26;14.95;;;13.85;;
80694;SDS011;70059;42.702;23.312;2023-07-13T10:47:56;15.65;;;14.40;;
80694;SDS011;70059;42.702;23.312;2023-07-13T10:50:23;14.95;;;13.70;;
80694;SDS011;70059;42.702;23.312;2023-07-13T10:52:52;17.05;;;15.23;;
80694;SDS011;70059;42.702;23.312;2023-07-13T10:58:31;14.63;;;13.48;;
80694;SDS011;70059;42.702;23.312;2023-07-13T11:01:08;14.25;;;12.93;;
80694;SDS011;70059;42.702;23.312;2023-07-13T11:03:38;15.23;;;13.77;;
80694;SDS011;70059;42.702;23.312;2023-07-13T11:08:59;15.25;;;13.95;;
80694;SDS011;70059;42.702;23.312;2023-07-13T11:11:43;15.73;;;14.07;;
80694;SDS011;70059;42.702;23.312;2023-07-13T11:16:53;13.75;;;12.75;;
80694;SDS011;70059;42.702;23.312;2023-07-13T11:35:37;15.10;;;13.77;;
80694;SDS011;70059;42.702;23.312;2023-07-13T11:38:13;15.80;;;14.25;;
80694;SDS011;70059;42.702;23.312;2023-07-13T11:40:45;15.35;;;13.90;;
80694;SDS011;70059;42.702;23.312;2023-07-13T11:43:13;14.25;;;13.25;;
80694;SDS011;70059;42.702;23.312;2023-07-13T11:45:40;14.75;;;13.50;;
80694;SDS011;70059;42.702;23.312;2023-07-13T11:48:29;14.50;;;13.50;;
80694;SDS011;70059;42.702;23.312;2023-07-13T11:53:31;14.65;;;13.40;;
80694;SDS011;70059;42.702;23.312;2023-07-13T11:56:04;18.27;;;16.45;;
80694;SDS011;70059;42.702;23.312;2023-07-13T11:58:31;15.73;;;14.32;;
80694;SDS011;70059;42.702;23.312;2023-07-13T12:00:58;15.15;;;13.85;;
80694;SDS011;70059;42.702;23.312;2023-07-13T12:03:29;18.88;;;14.13;;
80694;SDS011;70059;42.702;23.312;2023-07-13T12:08:27;16.67;;;15.00;;
80694;SDS011;70059;42.702;23.312;2023-07-13T12:10:58;15.25;;;13.65;;
80694;SDS011;70059;42.702;23.312;2023-07-13T12:13:26;15.02;;;13.82;;
80694;SDS011;70059;42.702;23.312;2023-07-13T12:15:54;15.00;;;13.67;;
80694;SDS011;70059;42.702;23.312;2023-07-13T12:18:22;15.55;;;14.32;;
80694;SDS011;70059;42.702;23.312;2023-07-13T12:20:55;15.07;;;12.65;;
80694;SDS011;70059;42.702;23.312;2023-07-13T12:26:00;15.45;;;13.95;;
80694;SDS011;70059;42.702;23.312;2023-07-13T12:31:02;14.50;;;13.00;;
80694;SDS011;70059;42.702;23.312;2023-07-13T12:33:42;15.85;;;13.23;;
80694;SDS011;70059;42.702;23.312;2023-07-13T12:36:10;14.35;;;13.20;;
80694;SDS011;70059;42.702;23.312;2023-07-13T12:38:37;14.38;;;12.57;;
80694;SDS011;70059;42.702;23.312;2023-07-13T12:41:03;14.68;;;13.55;;
80694;SDS011;70059;42.702;23.312;2023-07-13T12:43:32;14.77;;;13.48;;
80694;SDS011;70059;42.702;23.312;2023-07-13T12:46:14;16.52;;;13.20;;
80694;SDS011;70059;42.702;23.312;2023-07-13T12:48:48;17.02;;;14.07;;
80694;SDS011;70059;42.702;23.312;2023-07-13T12:51:20;14.30;;;12.70;;
80694;SDS011;70059;42.702;23.312;2023-07-13T12:53:48;15.35;;;13.85;;
80694;SDS011;70059;42.702;23.312;2023-07-13T12:56:19;14.38;;;13.02;;
80694;SDS011;70059;42.702;23.312;2023-07-13T12:58:56;14.32;;;13.00;;
80694;SDS011;70059;42.702;23.312;2023-07-13T13:01:26;16.38;;;13.75;;
80694;SDS011;70059;42.702;23.312;2023-07-13T13:06:27;15.00;;;13.52;;
80694;SDS011;70059;42.702;23.312;2023-07-13T13:08:55;14.95;;;13.45;;
80694;SDS011;70059;42.702;23.312;2023-07-13T13:11:23;15.45;;;13.45;;
80694;SDS011;70059;42.702;23.312;2023-07-13T13:13:51;14.90;;;13.23;;
80694;SDS011;70059;42.702;23.312;2023-07-13T13:18:57;16.77;;;14.02;;
80694;SDS011;70059;42.702;23.312;2023-07-13T13:21:25;14.95;;;13.30;;
80694;SDS011;70059;42.702;23.312;2023-07-13T13:23:51;14.63;;;13.23;;
80694;SDS011;70059;42.702;23.312;2023-07-13T13:26:18;14.90;;;12.52;;
80694;SDS011;70059;42.702;23.312;2023-07-13T13:28:44;14.90;;;13.40;;
80694;SDS011;70059;42.702;23.312;2023-07-13T13:31:11;16.15;;;13.40;;
80694;SDS011;70059;42.702;23.312;2023-07-13T13:33:39;15.85;;;14.20;;
80694;SDS011;70059;42.702;23.312;2023-07-13T13:36:14;14.07;;;12.75;;
80694;SDS011;70059;42.702;23.312;2023-07-13T13:38:41;15.07;;;13.65;;
80694;SDS011;70059;42.702;23.312;2023-07-13T13:41:11;13.68;;;12.38;;
80694;SDS011;70059;42.702;23.312;2023-07-13T13:43:39;12.93;;;11.65;;
80694;SDS011;70059;42.702;23.312;2023-07-13T13:46:19;13.48;;;11.43;;
80694;SDS011;70059;42.702;23.312;2023-07-13T13:48:50;16.42;;;12.73;;
80694;SDS011;70059;42.702;23.312;2023-07-13T13:51:16;14.18;;;12.70;;
80694;SDS011;70059;42.702;23.312;2023-07-13T13:53:44;15.82;;;11.80;;
80694;SDS011;70059;42.702;23.312;2023-07-13T13:56:11;12.70;;;11.70;;
80694;SDS011;70059;42.702;23.312;2023-07-13T13:58:38;13.85;;;12.45;;
80694;SDS011;70059;42.702;23.312;2023-07-13T14:01:04;14.48;;;13.00;;
80694;SDS011;70059;42.702;23.312;2023-07-13T14:03:37;13.65;;;12.35;;
80694;SDS011;70059;42.702;23.312;2023-07-13T14:06:03;14.32;;;12.57;;
80694;SDS011;70059;42.702;23.312;2023-07-13T14:08:28;12.93;;;11.73;;
80694;SDS011;70059;42.702;23.312;2023-07-13T14:10:55;14.40;;;13.00;;
80694;SDS011;70059;42.702;23.312;2023-07-13T14:13:27;14.50;;;13.13;;
80694;SDS011;70059;42.702;23.312;2023-07-13T14:15:56;12.98;;;11.77;;
80694;SDS011;70059;42.702;23.312;2023-07-13T14:18:22;14.10;;;12.73;;
80694;SDS011;70059;42.702;23.312;2023-07-13T14:20:48;15.45;;;13.13;;
80694;SDS011;70059;42.702;23.312;2023-07-13T14:23:15;14.80;;;12.65;;
80694;SDS011;70059;42.702;23.312;2023-07-13T14:25:43;13.68;;;12.30;;
80694;SDS011;70059;42.702;23.312;2023-07-13T14:28:21;13.55;;;12.20;;
80694;SDS011;70059;42.702;23.312;2023-07-13T14:30:49;16.73;;;12.77;;
80694;SDS011;70059;42.702;23.312;2023-07-13T14:33:16;13.23;;;11.85;;
80694;SDS011;70059;42.702;23.312;2023-07-13T14:35:41;13.75;;;12.32;;
80694;SDS011;70059;42.702;23.312;2023-07-13T14:38:15;14.48;;;12.32;;
80694;SDS011;70059;42.702;23.312;2023-07-13T14:40:43;13.32;;;11.98;;
80694;SDS011;70059;42.702;23.312;2023-07-13T14:43:10;14.93;;;11.95;;
80694;SDS011;70059;42.702;23.312;2023-07-13T14:45:38;14.57;;;13.20;;
80694;SDS011;70059;42.702;23.312;2023-07-13T14:48:16;15.32;;;12.98;;
80694;SDS011;70059;42.702;23.312;2023-07-13T14:50:43;13.95;;;12.57;;
80694;SDS011;70059;42.702;23.312;2023-07-13T14:53:11;14.40;;;12.98;;
80694;SDS011;70059;42.702;23.312;2023-07-13T14:55:37;15.20;;;13.65;;
80694;SDS011;70059;42.702;23.312;2023-07-13T14:58:03;14.07;;;12.77;;
80694;SDS011;70059;42.702;23.312;2023-07-13T15:00:29;15.55;;;14.05;;
80694;SDS011;70059;42.702;23.312;2023-07-13T15:02:56;14.35;;;12.85;;
80694;SDS011;70059;42.702;23.312;2023-07-13T15:05:28;14.35;;;12.85;;
80694;SDS011;70059;42.702;23.312;2023-07-13T15:07:59;14.02;;;12.65;;
80694;SDS011;70059;42.702;23.312;2023-07-13T15:10:28;14.90;;;13.60;;
80694;SDS011;70059;42.702;23.312;2023-07-13T15:12:58;15.10;;;13.35;;
80694;SDS011;70059;42.702;23.312;2023-07-13T15:15:38;15.38;;;11.90;;
80694;SDS011;70059;42.702;23.312;2023-07-13T15:18:09;15.65;;;12.50;;
80694;SDS011;70059;42.702;23.312;2023-07-13T15:20:36;15.23;;;11.63;;
80694;SDS011;70059;42.702;23.312;2023-07-13T15:23:02;16.27;;;12.88;;
80694;SDS011;70059;42.702;23.312;2023-07-13T15:25:29;14.07;;;12.73;;